1891 Cyclonic Storm NOT_NAMED (1891263N16097)


IBTrACS version v04r00. Visit IBTrACS website for data access.
Please direct all questions to the IBTrACS Q and A forum

Storm track - Intensity - Wind Radii - Intensity Data - Source Data - All data

Summary Information

Storm ID 1891263N16097
Start Sep 20 00Z
Landfall Sep 20 09Z, Sep 22 09Z
Max Intensity 45 kt (Sep 21 12Z)
End Oct 2 03Z
ATCF IDs
Track status Best track data.

Storm track plot

Map of storm track

Intensity plots

Map of storm track

Radial wind information

No radial wind information for this storm


Position and Intensity Table

BASIN ISO_TIME_________ NATURE LAT LON DS824 WIND
degrees north degrees east kts
NI 1891-09-20 00:00:00 TS 15.60 97.10 30
NI 03:00:00 TS 15.60 96.47 30
NI 06:00:00 TS 15.71 95.56 30
NI 09:00:00 TS 15.92 94.62 30
NI 12:00:00 TS 16.18 93.81 30
NI 15:00:00 TS 16.47 93.07 31
NI 18:00:00 TS 16.81 92.45 32
NI 21:00:00 TS 17.17 91.87 33
NI 1891-09-21 00:00:00 TS 17.52 91.34 34
NI 03:00:00 TS 17.83 90.87 36
NI 06:00:00 TS 18.09 90.40 39
NI 09:00:00 TS 18.37 89.93 42
NI 12:00:00 TS 18.66 89.50 45
NI 15:00:00 TS 18.97 89.12 45
NI 18:00:00 TS 19.31 88.77 45
NI 21:00:00 TS 19.66 88.43 45
NI 1891-09-22 00:00:00 TS 20.02 88.08 45
NI 03:00:00 TS 20.37 87.68 41
NI 06:00:00 TS 20.74 87.25 37
NI 09:00:00 TS 21.12 86.81 33
NI 12:00:00 TS 21.46 86.34 30
NI 15:00:00 TS 21.72 85.86 30
NI 18:00:00 TS 21.91 85.35 30
NI 21:00:00 TS 22.03 84.81 30
NI 1891-09-23 00:00:00 TS 22.08 84.27 30
NI 03:00:00 TS 22.08 83.72 30
NI 06:00:00 TS 22.05 83.17 30
NI 09:00:00 TS 22.01 82.63 30
NI 12:00:00 TS 21.94 82.14 30
NI 15:00:00 TS 21.88 81.71 30
NI 18:00:00 TS 21.82 81.33 30
NI 21:00:00 TS 21.74 80.95 30
NI 1891-09-24 00:00:00 TS 21.64 80.63 30
NI 03:00:00 TS 21.55 80.41 30
NI 06:00:00 TS 21.45 80.25 30
NI 09:00:00 TS 21.34 80.11 30
NI 12:00:00 TS 21.24 79.97 30
NI 15:00:00 TS 21.17 79.80 30
NI 18:00:00 TS 21.12 79.59 30
NI 21:00:00 TS 21.07 79.37 30
NI 1891-09-25 00:00:00 TS 21.02 79.18 30
NI 03:00:00 TS 20.97 79.06 30
NI 06:00:00 TS 20.92 79.02 30
NI 09:00:00 TS 20.87 79.01 30
NI 12:00:00 TS 20.82 79.01 30
NI 15:00:00 TS 20.77 78.98 30
NI 18:00:00 TS 20.72 78.92 30
NI 21:00:00 TS 20.68 78.84 30
NI 1891-09-26 00:00:00 TS 20.68 78.74 30
NI 03:00:00 TS 20.76 78.65 30
NI 06:00:00 TS 20.90 78.55 30
NI 09:00:00 TS 21.08 78.48 30
NI 12:00:00 TS 21.29 78.42 30
NI 15:00:00 TS 21.52 78.39 30
NI 18:00:00 TS 21.76 78.39 30
NI 21:00:00 TS 21.98 78.42 30
NI 1891-09-27 00:00:00 TS 22.19 78.47 30
NI 03:00:00 TS 22.40 78.55 30
NI 06:00:00 TS 22.59 78.64 30
NI 09:00:00 TS 22.76 78.75 30
NI 12:00:00 TS 22.92 78.85 30
NI 15:00:00 TS 23.10 78.93 30
NI 18:00:00 TS 23.29 78.98 30
NI 21:00:00 TS 23.47 79.06 30
NI 1891-09-28 00:00:00 TS 23.62 79.15 30
NI 03:00:00 TS 23.75 79.27 30
NI 06:00:00 TS 23.86 79.42 30
NI 09:00:00 TS 23.96 79.60 30
NI 12:00:00 TS 24.06 79.80 30
NI 15:00:00 TS 24.15 80.00 30
NI 18:00:00 TS 24.25 80.21 30
NI 21:00:00 TS 24.34 80.43 30
NI 1891-09-29 00:00:00 TS 24.44 80.62 30
NI 03:00:00 TS 24.57 80.76 30
NI 06:00:00 TS 24.72 80.86 30
NI 09:00:00 TS 24.87 80.91 30
NI 12:00:00 TS 25.02 80.91 30
NI 15:00:00 TS 25.15 80.86 30
NI 18:00:00 TS 25.27 80.77 30
NI 21:00:00 TS 25.42 80.66 30
NI 1891-09-30 00:00:00 TS 25.55 80.55 30
NI 03:00:00 TS 25.63 80.47 30
NI 06:00:00 TS 25.68 80.42 30
NI 09:00:00 TS 25.73 80.41 30
NI 12:00:00 TS 25.78 80.40 30
NI 15:00:00 TS 25.82 80.40 30
NI 18:00:00 TS 25.89 80.38 30
NI 21:00:00 TS 25.97 80.35 30
NI 1891-10-01 00:00:00 TS 26.07 80.37 30
NI 03:00:00 TS 26.16 80.48 30
NI 06:00:00 TS 26.23 80.69 30
NI 09:00:00 TS 26.23 80.93 30
NI 12:00:00 TS 26.21 81.18 30
NI 15:00:00 TS 26.18 81.38 30
NI 18:00:00 TS 26.13 81.54 30
NI 21:00:00 TS 26.05 81.69 30
NI 1891-10-02 00:00:00 TS 25.96 81.82 30
NI 03:00:00 NR 25.90 81.90

Source Information

Agency Information
USA
TOKYO
CMA
HKO
NEWDELHI
REUNION
BOM
NADI
WELLINGTON
DS824 n_ind.dat:164:NOT NAMED
TD9636 cons_worldwide_trop_cyclone_18710101-19891231-004:Line=1639
TD9635
NEUMANN
MLC

All available IBTrACS Data

SEASON BASIN SUBBASIN ISO_TIME_________ NATURE LAT LON DIST2LAND LANDFALL IFLAG USA SSHS DS824 LAT DS824 LON DS824 STAGE DS824 WIND TD9636 LAT TD9636 LON TD9636 STAGE STORM SPEED STORM DIR
Year degrees north degrees east km km 1 degrees north degrees east kts degrees north degrees east kts degrees
1891 NI BB 1891-09-20 00:00:00 TS 15.60 97.10 68 68 _________O____ -1 15.60 97.10 TC 30 12 270
1891 NI BB 03:00:00 TS 15.60 96.47 89 10 _________PO___ -1 15.60 96.15 TC 30 15.60 97.10 1 15 274
1891 NI BB 06:00:00 TS 15.71 95.56 10 0 _________OP___ -1 15.70 95.20 TC 30 15.73 96.10 1 18 280
1891 NI BB 09:00:00 TS 15.92 94.62 0 0 _________PP___ -1 15.96 94.25 TC 30 15.88 95.12 1 18 286
1891 NI BB 12:00:00 TS 16.18 93.81 48 48 _________OP___ -1 16.30 93.40 TC 30 16.06 94.21 1 16 290
1891 NI BB 15:00:00 TS 16.47 93.07 127 127 _________PO___ -1 16.64 92.75 TC 31 16.30 93.40 1 14 296
1891 NI BB 18:00:00 TS 16.81 92.45 194 194 _________OP___ -1 17.00 92.20 TC 32 16.61 92.70 1 14 301
1891 NI BB 21:00:00 TS 17.17 91.87 267 267 _________PP___ -1 17.36 91.63 TC 33 16.97 92.11 1 13 304
1891 NI BB 1891-09-21 00:00:00 TS 17.52 91.34 303 297 _________OP___ -1 17.70 91.10 TC 34 17.34 91.58 1 12 305
1891 NI BB 03:00:00 TS 17.83 90.87 324 324 _________PO___ -1 17.96 90.63 TC 36 17.70 91.10 2 11 302
1891 NI BB 06:00:00 TS 18.09 90.40 344 344 _________OP___ -1 18.20 90.20 TC 39 17.98 90.60 2 10 301
1891 NI BB 09:00:00 TS 18.37 89.93 362 338 _________PP___ -1 18.48 89.73 TC 42 18.25 90.13 2 10 304
1891 NI BB 12:00:00 TS 18.66 89.50 327 290 _________OP___ -1 18.80 89.30 TC 45 18.52 89.70 2 10 308
1891 NI BB 15:00:00 TS 18.97 89.12 290 244 _________PO___ -1 19.14 88.93 TC 45 18.80 89.30 3 10 313
1891 NI BB 18:00:00 TS 19.31 88.77 244 199 _________OP___ -1 19.50 88.60 TC 45 19.13 88.94 3 10 317
1891 NI BB 21:00:00 TS 19.66 88.43 183 138 _________PP___ -1 19.85 88.26 TC 45 19.48 88.60 3 10 317
1891 NI BB 1891-09-22 00:00:00 TS 20.02 88.08 138 80 _________OP___ -1 20.20 87.90 TC 45 19.84 88.26 3 10 315
1891 NI BB 03:00:00 TS 20.37 87.68 80 31 _________PO___ -1 20.55 87.46 TC 41 20.20 87.90 3 11 313
1891 NI BB 06:00:00 TS 20.74 87.25 20 0 _________OP___ -1 20.90 87.00 TC 37 20.59 87.49 3 11 312
1891 NI BB 09:00:00 TS 21.12 86.81 0 0 _________PP___ -1 21.27 86.56 TC 33 20.97 87.05 3 11 310
1891 NI BB 12:00:00 TS 21.46 86.34 0 0 _________OP___ -1 21.60 86.10 TC 30 21.31 86.59 3 11 304
1891 NI BB 15:00:00 TS 21.72 85.86 0 0 _________PO___ -1 21.84 85.61 TC 30 21.60 86.10 1 10 296
1891 NI BB 18:00:00 TS 21.91 85.35 0 0 _________OP___ -1 22.00 85.10 TC 30 21.82 85.60 1 10 288
1891 NI BB 21:00:00 TS 22.03 84.81 0 0 _________PP___ -1 22.09 84.56 TC 30 21.97 85.07 1 10 280
1891 NI BB 1891-09-23 00:00:00 TS 22.08 84.27 0 0 _________OP___ -1 22.10 84.00 TC 30 22.06 84.54 1 10 273
1891 NI BB 03:00:00 TS 22.08 83.72 0 0 _________PO___ -1 22.06 83.44 TC 30 22.10 84.00 1 10 268
1891 NI BB 06:00:00 TS 22.05 83.17 0 0 _________OP___ -1 22.00 82.90 TC 30 22.10 83.45 1 10 266
1891 NI BB 09:00:00 TS 22.01 82.63 0 0 _________PP___ -1 21.95 82.37 TC 30 22.06 82.90 1 10 264
1891 NI BB 12:00:00 TS 21.94 82.14 0 0 _________OP___ -1 21.90 81.90 TC 30 21.99 82.37 1 9 262
1891 NI BB 15:00:00 TS 21.88 81.71 0 0 _________PO___ -1 21.86 81.53 TC 30 21.90 81.90 1 8 260
1891 NI BB 18:00:00 TS 21.82 81.33 0 0 _________OP___ -1 21.80 81.20 TC 30 21.84 81.47 1 7 259
1891 NI BB 21:00:00 TS 21.74 80.95 0 0 _________PP___ -1 21.71 80.82 TC 30 21.76 81.09 1 7 255
1891 NI BB 1891-09-24 00:00:00 TS 21.64 80.63 0 0 _________OP___ -1 21.60 80.50 TC 30 21.69 80.76 1 5 250
1891 NI BB 03:00:00 TS 21.55 80.41 0 0 _________PO___ -1 21.50 80.32 TC 30 21.60 80.50 1 4 241
1891 NI BB 06:00:00 TS 21.45 80.25 0 0 _________OP___ -1 21.40 80.20 TC 30 21.50 80.30 1 4 234
1891 NI BB 09:00:00 TS 21.34 80.11 0 0 _________PP___ -1 21.29 80.06 TC 30 21.39 80.16 1 3 232
1891 NI BB 12:00:00 TS 21.24 79.97 0 0 _________OP___ -1 21.20 79.90 TC 30 21.29 80.03 1 3 239
1891 NI BB 15:00:00 TS 21.17 79.80 0 0 _________PO___ -1 21.14 79.71 TC 30 21.20 79.90 1 4 250
1891 NI BB 18:00:00 TS 21.12 79.59 0 0 _________OP___ -1 21.10 79.50 TC 30 21.14 79.69 1 4 256
1891 NI BB 21:00:00 TS 21.07 79.37 0 0 _________PP___ -1 21.05 79.28 TC 30 21.09 79.46 1 4 256
1891 NI BB 1891-09-25 00:00:00 TS 21.02 79.18 0 0 _________OP___ -1 21.00 79.10 TC 30 21.04 79.26 1 3 252
1891 NI BB 03:00:00 TS 20.97 79.06 0 0 _________PO___ -1 20.95 79.02 TC 30 21.00 79.10 1 2 237
1891 NI BB 06:00:00 TS 20.92 79.02 0 0 _________OP___ -1 20.90 79.00 TC 30 20.95 79.03 1 1 209
1891 NI BB 09:00:00 TS 20.87 79.01 0 0 _________PP___ -1 20.85 79.00 TC 30 20.89 79.01 1 1 194
1891 NI BB 12:00:00 TS 20.82 79.01 0 0 _________OP___ -1 20.80 79.00 TC 30 20.84 79.01 1 1 0
1891 NI BB 15:00:00 TS 20.77 78.98 0 0 _________PO___ -1 20.74 78.96 TC 30 20.80 79.00 1 1 218
1891 NI BB 18:00:00 TS 20.72 78.92 0 0 _________OP___ -1 20.70 78.90 TC 30 20.74 78.94 1 2 236
1891 NI BB 21:00:00 TS 20.68 78.84 0 0 _________PP___ -1 20.67 78.81 TC 30 20.68 78.86 1 2 258
1891 NI BB 1891-09-26 00:00:00 TS 20.68 78.74 0 0 _________OP___ -1 20.70 78.70 TC 30 20.66 78.78 1 2 296
1891 NI BB 03:00:00 TS 20.76 78.65 0 0 _________PO___ -1 20.82 78.59 TC 30 20.70 78.70 1 3 321
1891 NI BB 06:00:00 TS 20.90 78.55 0 0 _________OP___ -1 21.00 78.50 TC 30 20.81 78.61 1 4 334
1891 NI BB 09:00:00 TS 21.08 78.48 0 0 _________PP___ -1 21.18 78.43 TC 30 20.98 78.52 1 4 342
1891 NI BB 12:00:00 TS 21.29 78.42 0 0 _________OP___ -1 21.40 78.40 TC 30 21.18 78.45 1 5 351
1891 NI BB 15:00:00 TS 21.52 78.39 0 0 _________PO___ -1 21.65 78.39 TC 30 21.40 78.40 1 5 356
1891 NI BB 18:00:00 TS 21.76 78.39 0 0 _________OP___ -1 21.90 78.40 TC 30 21.62 78.38 1 5 3
1891 NI BB 21:00:00 TS 21.98 78.42 0 0 _________PP___ -1 22.11 78.44 TC 30 21.85 78.40 1 4 9
1891 NI BB 1891-09-27 00:00:00 TS 22.19 78.47 0 0 _________OP___ -1 22.30 78.50 TC 30 22.08 78.44 1 4 15
1891 NI BB 03:00:00 TS 22.40 78.55 0 0 _________PO___ -1 22.51 78.59 TC 30 22.30 78.50 1 4 21
1891 NI BB 06:00:00 TS 22.59 78.64 0 0 _________OP___ -1 22.70 78.70 TC 30 22.49 78.58 1 4 28
1891 NI BB 09:00:00 TS 22.76 78.75 0 0 _________PP___ -1 22.85 78.81 TC 30 22.67 78.68 1 4 30
1891 NI BB 12:00:00 TS 22.92 78.85 0 0 _________OP___ -1 23.00 78.90 TC 30 22.83 78.79 1 4 26
1891 NI BB 15:00:00 TS 23.10 78.93 0 0 _________PO___ -1 23.20 78.95 TC 30 23.00 78.90 1 4 19
1891 NI BB 18:00:00 TS 23.29 78.98 0 0 _________OP___ -1 23.40 79.00 TC 30 23.19 78.97 1 4 18
1891 NI BB 21:00:00 TS 23.47 79.06 0 0 _________PP___ -1 23.56 79.09 TC 30 23.37 79.03 1 4 25
1891 NI BB 1891-09-28 00:00:00 TS 23.62 79.15 0 0 _________OP___ -1 23.70 79.20 TC 30 23.55 79.10 1 3 34
1891 NI BB 03:00:00 TS 23.75 79.27 0 0 _________PO___ -1 23.81 79.34 TC 30 23.70 79.20 1 3 46
1891 NI BB 06:00:00 TS 23.86 79.42 0 0 _________OP___ -1 23.90 79.50 TC 30 23.82 79.34 1 4 56
1891 NI BB 09:00:00 TS 23.96 79.60 0 0 _________PP___ -1 24.00 79.69 TC 30 23.92 79.51 1 4 61
1891 NI BB 12:00:00 TS 24.06 79.80 0 0 _________OP___ -1 24.10 79.90 TC 30 24.01 79.70 1 4 63
1891 NI BB 15:00:00 TS 24.15 80.00 0 0 _________PO___ -1 24.20 80.10 TC 30 24.10 79.90 1 4 63
1891 NI BB 18:00:00 TS 24.25 80.21 0 0 _________OP___ -1 24.30 80.30 TC 30 24.19 80.12 1 4 64
1891 NI BB 21:00:00 TS 24.34 80.43 0 0 _________PP___ -1 24.39 80.52 TC 30 24.29 80.34 1 4 62
1891 NI BB 1891-09-29 00:00:00 TS 24.44 80.62 0 0 _________OP___ -1 24.50 80.70 TC 30 24.39 80.54 1 4 53
1891 NI BB 03:00:00 TS 24.57 80.76 0 0 _________PO___ -1 24.64 80.83 TC 30 24.50 80.70 1 4 38
1891 NI BB 06:00:00 TS 24.72 80.86 0 0 _________OP___ -1 24.80 80.90 TC 30 24.64 80.82 1 3 23
1891 NI BB 09:00:00 TS 24.87 80.91 0 0 _________PP___ -1 24.96 80.93 TC 30 24.79 80.89 1 3 6
1891 NI BB 12:00:00 TS 25.02 80.91 0 0 _________OP___ -1 25.10 80.90 TC 30 24.95 80.92 1 3 353
1891 NI BB 15:00:00 TS 25.15 80.86 0 0 _________PO___ -1 25.20 80.81 TC 30 25.10 80.90 1 3 332
1891 NI BB 18:00:00 TS 25.27 80.77 0 0 _________OP___ -1 25.30 80.70 TC 30 25.24 80.83 1 3 326
1891 NI BB 21:00:00 TS 25.42 80.66 0 0 _________PP___ -1 25.46 80.59 TC 30 25.38 80.72 1 3 325
1891 NI BB 1891-09-30 00:00:00 TS 25.55 80.55 0 0 _________OP___ -1 25.60 80.50 TC 30 25.50 80.60 1 3 321
1891 NI BB 03:00:00 TS 25.63 80.47 0 0 _________PO___ -1 25.66 80.43 TC 30 25.60 80.50 1 2 321
1891 NI BB 06:00:00 TS 25.68 80.42 0 0 _________OP___ -1 25.70 80.40 TC 30 25.67 80.45 1 1 333
1891 NI BB 09:00:00 TS 25.73 80.41 0 0 _________PP___ -1 25.75 80.39 TC 30 25.71 80.42 1 1 345
1891 NI BB 12:00:00 TS 25.78 80.40 0 0 _________OP___ -1 25.80 80.40 TC 30 25.75 80.41 1 1 0
1891 NI BB 15:00:00 TS 25.82 80.40 0 0 _________PO___ -1 25.84 80.40 TC 30 25.80 80.40 1 1 351
1891 NI BB 18:00:00 TS 25.89 80.38 0 0 _________OP___ -1 25.90 80.40 TC 30 25.88 80.36 1 2 346
1891 NI BB 21:00:00 TS 25.97 80.35 0 0 _________PP___ -1 25.99 80.37 TC 30 25.96 80.33 1 2 352
1891 NI BB 1891-10-01 00:00:00 TS 26.07 80.37 0 0 _________OP___ -1 26.10 80.40 TC 30 26.04 80.33 1 2 32
1891 NI BB 03:00:00 TS 26.16 80.48 0 0 _________PO___ -1 26.22 80.56 TC 30 26.10 80.40 1 3 61
1891 NI BB 06:00:00 TS 26.23 80.69 0 0 _________OP___ -1 26.30 80.80 TC 30 26.16 80.57 1 4 80
1891 NI BB 09:00:00 TS 26.23 80.93 0 0 _________PP___ -1 26.27 81.06 TC 30 26.20 80.80 1 4 93
1891 NI BB 12:00:00 TS 26.21 81.18 0 0 _________OP___ -1 26.20 81.30 TC 30 26.21 81.06 1 4 98
1891 NI BB 15:00:00 TS 26.18 81.38 0 0 _________PO___ -1 26.16 81.46 TC 30 26.20 81.30 1 3 103
1891 NI BB 18:00:00 TS 26.13 81.54 0 0 _________OP___ -1 26.10 81.60 TC 30 26.16 81.50 1 3 114
1891 NI BB 21:00:00 TS 26.05 81.69 0 0 _________PP___ -1 26.01 81.75 TC 30 26.08 81.65 1 3 123
1891 NI BB 1891-10-02 00:00:00 TS 25.96 81.82 0 0 _________OP___ -1 25.90 81.90 TC 30 26.00 81.78 1 2 129
1891 NI BB 03:00:00 NR 25.90 81.90 0 __________O___ -1 TC 25.90 81.90 1 2 132